createdAt,value
2019-03-30T00:00:31.791Z,18.27
2019-03-30T00:03:00.840Z,17.90
2019-03-30T00:05:32.945Z,19.67
2019-03-30T00:08:01.946Z,21.27
2019-03-30T00:10:31.107Z,20.93
2019-03-30T00:13:00.112Z,18.30
2019-03-30T00:15:29.073Z,18.90
2019-03-30T00:17:58.078Z,19.63
2019-03-30T00:20:27.131Z,21.53
2019-03-30T00:22:56.200Z,18.57
2019-03-30T00:25:25.211Z,21.07
2019-03-30T00:27:54.184Z,19.43
2019-03-30T00:30:23.313Z,19.33
2019-03-30T00:32:52.344Z,21.30
2019-03-30T00:35:21.343Z,21.53
2019-03-30T00:37:50.417Z,20.07
2019-03-30T00:40:19.469Z,18.23
2019-03-30T00:42:48.599Z,17.57
2019-03-30T00:45:17.659Z,16.30
2019-03-30T00:47:46.713Z,16.70
2019-03-30T00:50:15.777Z,15.43
2019-03-30T00:52:47.281Z,15.73
2019-03-30T00:55:16.299Z,17.90
2019-03-30T00:57:45.357Z,18.90
2019-03-30T01:00:14.528Z,19.80
2019-03-30T01:02:43.502Z,19.77
2019-03-30T01:05:12.507Z,17.53
2019-03-30T01:07:41.577Z,18.57
2019-03-30T01:10:10.627Z,17.50
2019-03-30T01:12:39.668Z,19.37
2019-03-30T01:15:08.860Z,17.77
2019-03-30T01:17:37.933Z,19.50
2019-03-30T01:20:07.499Z,18.93
2019-03-30T01:22:36.562Z,17.73
2019-03-30T01:25:06.115Z,19.27
2019-03-30T01:27:35.195Z,19.13
2019-03-30T01:30:04.684Z,18.97
2019-03-30T01:32:35.181Z,18.10
2019-03-30T01:35:04.439Z,17.03
2019-03-30T01:37:33.460Z,19.47
2019-03-30T01:40:02.445Z,17.73
2019-03-30T01:42:31.442Z,18.00
2019-03-30T01:45:00.480Z,19.47
2019-03-30T01:47:29.497Z,18.67
2019-03-30T01:49:58.595Z,17.50
2019-03-30T01:52:27.670Z,18.07
2019-03-30T01:54:56.732Z,16.53
2019-03-30T01:57:25.731Z,16.17
2019-03-30T01:59:54.735Z,17.57
2019-03-30T02:02:23.807Z,15.43
2019-03-30T02:04:52.821Z,15.07
2019-03-30T02:07:21.804Z,16.73
2019-03-30T02:09:50.840Z,15.77
2019-03-30T02:12:19.829Z,16.73
2019-03-30T02:14:48.999Z,14.20
2019-03-30T02:17:20.116Z,14.17
2019-03-30T02:19:48.708Z,14.03
2019-03-30T02:22:17.752Z,15.27
2019-03-30T02:24:46.870Z,15.47
2019-03-30T02:27:15.838Z,15.50
2019-03-30T02:29:46.632Z,14.30
2019-03-30T02:32:15.612Z,15.53
2019-03-30T02:34:44.644Z,16.70
2019-03-30T02:37:13.674Z,13.67
2019-03-30T02:39:42.724Z,13.90
2019-03-30T02:42:11.724Z,13.43
2019-03-30T02:44:40.687Z,13.23
2019-03-30T02:47:09.694Z,16.23
2019-03-30T02:49:38.794Z,18.07
2019-03-30T02:52:07.896Z,17.20
2019-03-30T02:54:36.896Z,14.67
2019-03-30T02:57:05.923Z,16.53
2019-03-30T02:59:34.993Z,16.40
2019-03-30T03:02:04.001Z,18.10
2019-03-30T03:04:33.048Z,16.37
2019-03-30T03:07:02.077Z,14.83
2019-03-30T03:09:31.127Z,13.93
2019-03-30T03:12:00.196Z,13.90
2019-03-30T03:14:29.312Z,14.43
2019-03-30T03:16:58.324Z,16.97
2019-03-30T03:19:27.387Z,17.03
2019-03-30T03:21:56.451Z,17.27
2019-03-30T03:24:25.456Z,14.60
2019-03-30T03:26:54.479Z,16.07
2019-03-30T03:29:23.523Z,16.40
2019-03-30T03:31:52.510Z,16.17
2019-03-30T03:34:21.604Z,17.70
2019-03-30T03:36:50.702Z,19.20
2019-03-30T03:39:19.759Z,17.57
2019-03-30T03:41:48.818Z,16.50
2019-03-30T03:44:21.333Z,15.03
2019-03-30T03:46:50.386Z,20.83
2019-03-30T03:49:21.137Z,11.37
2019-03-30T03:51:50.232Z,15.57
2019-03-30T03:54:19.274Z,17.60
2019-03-30T03:56:48.270Z,14.40
2019-03-30T03:59:17.635Z,15.53
2019-03-30T04:01:48.087Z,18.70
2019-03-30T04:04:22.130Z,17.13
2019-03-30T04:06:51.965Z,14.60
2019-03-30T04:09:22.529Z,16.70
2019-03-30T04:11:51.928Z,17.23
2019-03-30T04:14:23.985Z,16.27
2019-03-30T04:16:53.094Z,16.20
2019-03-30T04:19:22.136Z,16.87
2019-03-30T04:21:51.178Z,16.90
2019-03-30T04:24:20.192Z,15.67
2019-03-30T04:26:49.254Z,16.23
2019-03-30T04:29:19.897Z,14.67
2019-03-30T04:31:48.988Z,13.97
2019-03-30T04:34:18.040Z,15.50
2019-03-30T04:36:47.106Z,15.73
2019-03-30T04:39:16.091Z,12.90
2019-03-30T04:41:45.416Z,14.17
2019-03-30T04:44:14.444Z,14.47
2019-03-30T04:46:43.451Z,14.93
2019-03-30T04:49:12.449Z,15.37
2019-03-30T04:51:41.498Z,17.00
2019-03-30T04:54:10.569Z,15.03
2019-03-30T04:56:39.545Z,14.40
2019-03-30T04:59:08.614Z,16.17
2019-03-30T05:01:37.673Z,14.67
2019-03-30T05:04:07.363Z,14.20
2019-03-30T05:06:39.345Z,15.87
2019-03-30T05:09:08.348Z,17.50
2019-03-30T05:11:37.385Z,17.67
2019-03-30T05:14:06.408Z,15.27
2019-03-30T05:16:35.446Z,15.07
2019-03-30T05:19:04.444Z,14.30
2019-03-30T05:21:33.447Z,15.00
2019-03-30T05:24:02.547Z,16.50
2019-03-30T05:26:31.535Z,15.37
2019-03-30T05:29:00.543Z,13.67
2019-03-30T05:31:29.609Z,14.40
2019-03-30T05:34:00.614Z,15.67
2019-03-30T05:36:29.436Z,14.80
2019-03-30T05:38:58.495Z,15.10
2019-03-30T05:41:27.554Z,15.93
2019-03-30T05:43:56.579Z,17.77
2019-03-30T05:46:25.549Z,14.80
2019-03-30T05:48:54.556Z,18.57
2019-03-30T05:51:25.499Z,15.57
2019-03-30T05:53:54.260Z,17.37
2019-03-30T05:56:23.292Z,15.13
2019-03-30T05:58:52.436Z,18.53
2019-03-30T06:01:21.411Z,18.23
2019-03-30T06:03:50.474Z,15.50
2019-03-30T06:06:19.476Z,18.73
2019-03-30T06:08:48.560Z,18.13
2019-03-30T06:11:17.615Z,17.87
2019-03-30T06:13:46.621Z,17.07
2019-03-30T06:16:15.661Z,17.20
2019-03-30T06:18:45.772Z,16.07
2019-03-30T06:21:14.831Z,16.00
2019-03-30T06:23:43.839Z,15.20
2019-03-30T06:26:16.328Z,16.83
2019-03-30T06:28:45.338Z,14.80
2019-03-30T06:31:14.433Z,15.43
2019-03-30T06:33:43.445Z,14.97
2019-03-30T06:36:12.457Z,14.97
2019-03-30T06:38:41.459Z,14.77
2019-03-30T06:41:11.186Z,14.93
2019-03-30T06:43:40.180Z,14.60
2019-03-30T06:46:09.363Z,14.83
2019-03-30T06:48:38.358Z,15.23
2019-03-30T06:51:07.385Z,14.23
2019-03-30T06:53:36.453Z,15.57
2019-03-30T06:56:08.222Z,14.63
2019-03-30T06:58:37.251Z,15.00
2019-03-30T07:01:06.270Z,14.17
2019-03-30T07:03:35.473Z,14.50
2019-03-30T07:06:04.827Z,14.97
2019-03-30T07:08:33.895Z,13.87
2019-03-30T07:11:02.972Z,14.03
2019-03-30T07:13:33.424Z,13.23
2019-03-30T07:16:04.395Z,13.60
2019-03-30T07:18:35.003Z,12.87
2019-03-30T07:21:03.998Z,13.23
2019-03-30T07:23:33.011Z,13.60
2019-03-30T07:26:02.026Z,13.30
2019-03-30T07:28:31.108Z,13.83
2019-03-30T07:31:00.172Z,13.03
2019-03-30T07:33:31.835Z,13.13
2019-03-30T07:36:00.870Z,13.57
2019-03-30T07:38:29.962Z,13.60
2019-03-30T07:40:59.035Z,13.53
2019-03-30T07:43:28.056Z,12.50
2019-03-30T07:45:59.404Z,13.53
2019-03-30T07:48:28.407Z,12.80
2019-03-30T07:50:57.459Z,12.63
2019-03-30T07:53:27.153Z,13.30
2019-03-30T07:56:07.683Z,12.23
2019-03-30T07:58:27.122Z,12.53
2019-03-30T08:00:56.123Z,13.43
2019-03-30T08:03:25.156Z,12.03
2019-03-30T08:05:55.096Z,11.53
2019-03-30T08:08:24.190Z,11.43
2019-03-30T08:10:53.314Z,11.17
2019-03-30T08:13:22.332Z,11.40
2019-03-30T08:15:51.334Z,10.40
2019-03-30T08:18:20.490Z,11.00
2019-03-30T08:20:49.557Z,10.87
2019-03-30T08:23:18.679Z,10.33
2019-03-30T08:25:47.750Z,10.38
2019-03-30T08:28:16.731Z,10.43
2019-03-30T08:30:47.658Z,10.00
2019-03-30T08:33:16.692Z,9.98
2019-03-30T08:35:45.756Z,9.80
2019-03-30T08:38:14.944Z,10.03
2019-03-30T08:40:44.050Z,10.28
2019-03-30T08:43:13.145Z,9.45
2019-03-30T08:45:49.069Z,9.65
2019-03-30T08:48:18.238Z,9.65
2019-03-30T08:50:50.290Z,9.20
2019-03-30T08:53:21.376Z,10.07
2019-03-30T08:55:50.402Z,9.65
2019-03-30T08:58:21.066Z,9.40
2019-03-30T09:00:50.141Z,9.78
2019-03-30T09:03:19.224Z,10.07
2019-03-30T09:05:48.352Z,9.00
2019-03-30T09:08:17.453Z,9.98
2019-03-30T09:10:46.537Z,9.40
2019-03-30T09:13:15.535Z,8.93
2019-03-30T09:15:44.540Z,9.48
2019-03-30T09:18:13.565Z,9.55
2019-03-30T09:20:42.631Z,8.45
2019-03-30T09:23:11.723Z,9.38
2019-03-30T09:25:40.783Z,10.10
2019-03-30T09:28:09.859Z,9.83
2019-03-30T09:30:39.038Z,9.33
2019-03-30T09:33:08.065Z,10.15
2019-03-30T09:35:38.470Z,10.38
2019-03-30T09:38:07.678Z,10.23
2019-03-30T09:40:36.648Z,9.80
2019-03-30T09:43:10.508Z,9.78
2019-03-30T09:45:42.422Z,10.30
2019-03-30T09:48:11.549Z,9.88
2019-03-30T09:50:40.620Z,10.70
2019-03-30T09:53:09.805Z,10.50
2019-03-30T09:55:38.822Z,10.43
2019-03-30T09:58:10.143Z,11.47
2019-03-30T10:00:39.208Z,11.60
2019-03-30T10:03:08.263Z,11.20
2019-03-30T10:05:37.347Z,11.00
2019-03-30T10:11:04.411Z,11.90
2019-03-30T10:13:33.517Z,11.50
2019-03-30T10:16:04.197Z,12.17
2019-03-30T10:18:33.219Z,11.87
2019-03-30T10:21:02.190Z,11.47
2019-03-30T10:23:31.203Z,11.80
2019-03-30T10:26:01.229Z,11.37
2019-03-30T10:28:30.281Z,11.50
2019-03-30T10:30:59.350Z,11.40
2019-03-30T10:33:28.394Z,11.40
2019-03-30T10:35:57.508Z,11.67
2019-03-30T10:38:26.567Z,11.73
2019-03-30T10:40:55.603Z,12.10
2019-03-30T10:43:24.668Z,11.83
2019-03-30T10:45:53.800Z,11.67
2019-03-30T10:48:22.854Z,13.47
2019-03-30T10:50:51.933Z,13.13
2019-03-30T10:53:21.042Z,12.73
2019-03-30T10:55:56.919Z,12.30
2019-03-30T10:58:28.417Z,13.00
2019-03-30T11:00:57.472Z,12.60
2019-03-30T11:03:26.475Z,13.05
2019-03-30T11:05:57.141Z,12.33
2019-03-30T11:08:26.388Z,13.38
2019-03-30T11:10:55.435Z,12.23
2019-03-30T11:13:24.452Z,11.93
2019-03-30T11:15:53.548Z,12.30
2019-03-30T11:18:23.719Z,11.85
2019-03-30T11:20:52.760Z,12.40
2019-03-30T11:23:21.777Z,13.05
2019-03-30T11:25:50.801Z,12.70
2019-03-30T11:28:19.872Z,14.98
2019-03-30T11:30:49.009Z,14.05
2019-03-30T11:33:18.122Z,12.95
2019-03-30T11:35:47.212Z,13.03
2019-03-30T11:38:16.199Z,14.93
2019-03-30T11:40:45.209Z,14.80
2019-03-30T11:43:14.305Z,14.63
2019-03-30T11:45:43.421Z,13.10
2019-03-30T11:48:12.500Z,13.70
2019-03-30T11:50:42.912Z,14.87
2019-03-30T11:53:11.893Z,14.20
2019-03-30T11:55:40.995Z,12.80
2019-03-30T11:58:12.361Z,12.73
2019-03-30T12:00:41.440Z,12.83
2019-03-30T12:03:10.474Z,12.10
2019-03-30T12:05:39.609Z,11.57
2019-03-30T12:08:08.681Z,11.63
2019-03-30T12:10:37.746Z,11.80
2019-03-30T12:13:06.835Z,11.27
2019-03-30T12:15:35.937Z,12.70
2019-03-30T12:18:04.941Z,12.77
2019-03-30T12:20:33.936Z,12.07
2019-03-30T12:23:03.042Z,12.30
2019-03-30T12:25:36.024Z,10.83
2019-03-30T12:28:02.863Z,11.23
2019-03-30T12:30:31.909Z,11.30
2019-03-30T12:33:00.900Z,11.07
2019-03-30T12:35:30.000Z,11.20
2019-03-30T12:37:59.007Z,10.80
2019-03-30T12:40:29.704Z,11.20
2019-03-30T12:42:58.811Z,10.43
2019-03-30T12:45:27.836Z,11.20
2019-03-30T12:47:56.900Z,11.63
2019-03-30T12:50:26.098Z,11.67
2019-03-30T12:52:57.442Z,12.87
2019-03-30T12:55:27.722Z,10.90
2019-03-30T12:57:59.794Z,9.57
2019-03-30T13:00:29.053Z,10.10
2019-03-30T13:02:58.153Z,9.17
2019-03-30T13:05:27.202Z,9.20
2019-03-30T13:07:56.239Z,8.27
2019-03-30T13:10:25.250Z,8.27
2019-03-30T13:12:54.394Z,8.93
2019-03-30T13:15:23.479Z,8.07
2019-03-30T13:17:52.598Z,8.43
2019-03-30T13:20:21.643Z,7.70
2019-03-30T13:22:50.746Z,7.93
2019-03-30T13:25:20.381Z,7.20
2019-03-30T13:27:49.540Z,7.67
2019-03-30T13:30:18.627Z,7.57
2019-03-30T13:32:47.719Z,7.53
2019-03-30T13:35:16.738Z,8.30
2019-03-30T13:37:45.905Z,8.00
2019-03-30T13:40:15.041Z,8.10
2019-03-30T13:42:44.044Z,7.53
2019-03-30T13:45:13.014Z,7.20
2019-03-30T13:47:42.017Z,7.03
2019-03-30T13:50:11.102Z,7.70
2019-03-30T13:52:40.194Z,7.60
2019-03-30T13:55:09.477Z,6.63
2019-03-30T13:57:38.609Z,7.07
2019-03-30T14:00:08.424Z,7.43
2019-03-30T14:02:37.401Z,7.27
2019-03-30T14:05:06.714Z,8.00
2019-03-30T14:07:35.824Z,6.63
2019-03-30T14:10:05.785Z,7.30
2019-03-30T14:12:34.836Z,6.70
2019-03-30T14:15:03.868Z,7.10
2019-03-30T14:17:33.058Z,6.63
2019-03-30T14:20:02.114Z,7.40
2019-03-30T14:22:31.165Z,6.67
2019-03-30T14:25:00.227Z,7.07
2019-03-30T14:27:29.529Z,6.80
2019-03-30T14:29:58.694Z,6.67
2019-03-30T14:32:27.774Z,6.90
2019-03-30T14:34:56.856Z,6.97
2019-03-30T14:37:25.939Z,7.60
2019-03-30T14:39:55.040Z,7.37
2019-03-30T14:42:24.119Z,7.90
2019-03-30T14:44:53.198Z,8.00
2019-03-30T14:47:22.369Z,7.60
2019-03-30T14:49:51.454Z,8.70
2019-03-30T14:52:20.429Z,7.80
2019-03-30T14:54:53.147Z,8.37
2019-03-30T14:57:20.215Z,8.00
2019-03-30T14:59:49.343Z,7.97
2019-03-30T15:02:18.420Z,7.87
2019-03-30T15:04:47.493Z,9.33
2019-03-30T15:07:25.392Z,9.53
2019-03-30T15:09:56.377Z,16.77
2019-03-30T15:12:27.903Z,8.97
2019-03-30T15:14:56.905Z,10.90
2019-03-30T15:17:25.913Z,9.67
2019-03-30T15:19:54.951Z,8.27
2019-03-30T15:22:23.995Z,8.23
2019-03-30T15:24:53.023Z,8.70
2019-03-30T15:27:22.036Z,8.73
2019-03-30T15:29:51.128Z,8.50
2019-03-30T15:32:20.310Z,8.60
2019-03-30T15:34:49.425Z,8.03
2019-03-30T15:37:23.609Z,7.73
2019-03-30T15:39:52.718Z,7.77
2019-03-30T15:42:21.802Z,8.13
2019-03-30T15:44:50.878Z,7.73
2019-03-30T15:47:20.478Z,7.13
2019-03-30T15:49:49.550Z,7.47
2019-03-30T15:52:18.591Z,6.63
2019-03-30T15:54:47.713Z,7.60
2019-03-30T15:57:17.803Z,7.40
2019-03-30T15:59:46.853Z,7.57
2019-03-30T16:02:15.913Z,7.63
2019-03-30T16:04:46.610Z,8.13
2019-03-30T16:07:15.677Z,7.90
2019-03-30T16:09:44.793Z,8.17
2019-03-30T16:12:13.849Z,7.63
2019-03-30T16:14:43.006Z,7.40
2019-03-30T16:17:16.168Z,7.77
2019-03-30T16:19:45.248Z,7.87
2019-03-30T16:22:14.283Z,7.43
2019-03-30T16:24:43.406Z,7.50
2019-03-30T16:27:12.489Z,7.30
2019-03-30T16:29:41.544Z,7.93
2019-03-30T16:32:11.708Z,7.50
2019-03-30T16:34:40.812Z,6.90
2019-03-30T16:37:09.958Z,7.27
2019-03-30T16:39:39.069Z,7.93
2019-03-30T16:42:08.086Z,6.97
2019-03-30T16:44:37.072Z,6.80
2019-03-30T16:47:06.189Z,7.53
2019-03-30T16:49:35.276Z,7.83
2019-03-30T16:52:04.395Z,7.30
2019-03-30T16:54:35.763Z,7.37
2019-03-30T16:57:04.848Z,6.77
2019-03-30T16:59:42.101Z,7.77
2019-03-30T17:02:11.232Z,7.47
2019-03-30T17:04:40.774Z,7.63
2019-03-30T17:07:09.919Z,7.57
2019-03-30T17:09:39.456Z,7.33
2019-03-30T17:12:08.783Z,6.83
2019-03-30T17:14:37.952Z,6.70
2019-03-30T17:17:07.795Z,6.13
2019-03-30T17:19:37.010Z,6.53
2019-03-30T17:22:06.075Z,6.30
2019-03-30T17:24:35.525Z,6.53
2019-03-30T17:27:04.601Z,6.07
2019-03-30T17:29:33.724Z,6.50
2019-03-30T17:32:02.874Z,8.07
2019-03-30T17:34:31.976Z,8.67
2019-03-30T17:37:01.071Z,9.83
2019-03-30T17:39:30.280Z,13.67
2019-03-30T17:41:59.541Z,17.53
2019-03-30T17:44:28.638Z,19.77
2019-03-30T17:46:58.626Z,20.23
2019-03-30T17:49:30.845Z,19.87
2019-03-30T17:51:59.916Z,20.50
2019-03-30T17:54:29.325Z,22.63
2019-03-30T17:56:58.389Z,20.73
2019-03-30T17:59:27.444Z,21.57
2019-03-30T18:01:56.565Z,22.70
2019-03-30T18:04:25.725Z,21.20
2019-03-30T18:06:54.818Z,22.23
2019-03-30T18:09:23.926Z,22.83
2019-03-30T18:11:53.002Z,23.20
2019-03-30T18:14:22.136Z,23.43
2019-03-30T18:16:51.300Z,24.73
2019-03-30T18:19:21.039Z,22.17
2019-03-30T18:21:50.226Z,23.17
2019-03-30T18:24:19.338Z,24.63
2019-03-30T18:26:48.371Z,26.10
2019-03-30T18:29:17.500Z,24.73
2019-03-30T18:31:46.696Z,24.30
2019-03-30T18:34:15.919Z,24.23
2019-03-30T18:36:45.825Z,27.57
2019-03-30T18:39:15.312Z,26.20
2019-03-30T18:41:44.358Z,25.33
2019-03-30T18:44:13.445Z,22.90
2019-03-30T18:46:42.549Z,22.03
2019-03-30T18:49:11.933Z,20.60
2019-03-30T18:51:42.376Z,20.90
2019-03-30T18:54:13.768Z,22.43
2019-03-30T18:56:42.801Z,21.57
2019-03-30T18:59:11.843Z,23.17
2019-03-30T19:01:41.119Z,22.33
2019-03-30T19:04:10.304Z,21.93
2019-03-30T19:06:39.512Z,22.47
2019-03-30T19:09:09.317Z,23.17
2019-03-30T19:11:38.504Z,25.20
2019-03-30T19:14:07.561Z,24.67
2019-03-30T19:16:37.027Z,25.53
2019-03-30T19:19:06.741Z,29.37
2019-03-30T19:21:36.179Z,28.20
2019-03-30T19:24:05.225Z,27.67
2019-03-30T19:26:34.437Z,28.20
2019-03-30T19:29:03.533Z,28.37
2019-03-30T19:31:32.659Z,27.47
2019-03-30T19:34:01.742Z,28.73
2019-03-30T19:36:31.247Z,27.33
2019-03-30T19:39:00.463Z,30.10
2019-03-30T19:41:29.625Z,28.83
2019-03-30T19:43:58.764Z,26.90
2019-03-30T19:46:28.059Z,27.13
2019-03-30T19:48:57.234Z,27.80
2019-03-30T19:51:26.513Z,27.50
2019-03-30T19:53:55.651Z,27.93
2019-03-30T19:56:25.015Z,26.40
2019-03-30T19:58:54.326Z,27.53
2019-03-30T20:01:23.490Z,25.50
2019-03-30T20:03:52.673Z,25.63
2019-03-30T20:06:21.952Z,25.00
2019-03-30T20:08:51.128Z,25.27
2019-03-30T20:11:23.552Z,26.43
2019-03-30T20:13:53.725Z,25.50
2019-03-30T20:16:26.368Z,24.77
2019-03-30T20:19:10.926Z,27.23
2019-03-30T20:21:26.561Z,23.93
2019-03-30T20:23:57.947Z,26.73
2019-03-30T20:26:29.261Z,25.23
2019-03-30T20:28:59.394Z,25.13
2019-03-30T20:31:29.483Z,25.13
2019-03-30T20:33:58.580Z,27.27
2019-03-30T20:36:27.820Z,25.30
2019-03-30T20:38:56.957Z,26.30
2019-03-30T20:41:28.795Z,25.17
2019-03-30T20:43:57.955Z,24.70
2019-03-30T20:46:27.234Z,26.57
2019-03-30T20:48:59.042Z,26.83
2019-03-30T20:51:28.110Z,26.40
2019-03-30T20:53:57.286Z,27.03
2019-03-30T20:56:26.426Z,26.47
2019-03-30T20:58:55.547Z,25.23
2019-03-30T21:01:26.460Z,26.27
2019-03-30T21:03:55.761Z,27.27
2019-03-30T21:06:24.811Z,26.03
2019-03-30T21:08:53.992Z,26.53
2019-03-30T21:11:23.099Z,24.93
2019-03-30T21:13:59.670Z,26.07
2019-03-30T21:16:31.657Z,25.50
2019-03-30T21:19:00.850Z,24.93
2019-03-30T21:21:29.913Z,25.33
2019-03-30T21:23:58.999Z,25.13
2019-03-30T21:26:30.190Z,25.30
2019-03-30T21:28:59.266Z,25.20
2019-03-30T21:31:30.639Z,26.47
2019-03-30T21:33:59.717Z,25.07
2019-03-30T21:36:28.990Z,24.67
2019-03-30T21:39:03.839Z,24.67
2019-03-30T21:41:32.882Z,26.87
2019-03-30T21:44:02.017Z,25.33
2019-03-30T21:46:31.219Z,26.00
2019-03-30T21:49:00.372Z,25.27
2019-03-30T21:51:52.474Z,24.10
2019-03-30T21:54:27.843Z,25.10
2019-03-30T21:56:56.590Z,23.40
2019-03-30T21:59:27.756Z,25.50
2019-03-30T22:01:56.578Z,24.50
2019-03-30T22:04:27.673Z,24.27
2019-03-30T22:06:56.413Z,24.83
2019-03-30T22:09:25.551Z,24.20
2019-03-30T22:11:54.625Z,25.00
2019-03-30T22:14:23.714Z,25.77
2019-03-30T22:16:52.798Z,23.40
2019-03-30T22:19:21.905Z,24.43
2019-03-30T22:21:52.085Z,24.60
2019-03-30T22:24:22.302Z,26.37
2019-03-30T22:26:51.466Z,25.27
2019-03-30T22:29:20.516Z,25.77
2019-03-30T22:31:49.541Z,26.13
2019-03-30T22:34:18.611Z,26.27
2019-03-30T22:36:47.646Z,26.73
2019-03-30T22:39:21.857Z,27.40
2019-03-30T22:41:52.642Z,26.80
2019-03-30T22:44:21.760Z,29.57
2019-03-30T22:46:52.287Z,30.67
2019-03-30T22:49:24.085Z,30.67
2019-03-30T22:51:54.779Z,28.00
2019-03-30T22:54:24.245Z,28.77
2019-03-30T22:56:53.471Z,27.00
2019-03-30T22:59:22.578Z,28.20
2019-03-30T23:01:53.000Z,27.63
2019-03-30T23:04:22.168Z,28.00
2019-03-30T23:06:51.220Z,29.07
2019-03-30T23:09:20.207Z,26.53
2019-03-30T23:11:49.230Z,25.33
2019-03-30T23:14:18.334Z,23.93
2019-03-30T23:16:47.436Z,23.33
2019-03-30T23:19:16.708Z,21.27
2019-03-30T23:21:45.785Z,19.20
2019-03-30T23:24:14.842Z,20.10
2019-03-30T23:26:43.883Z,18.20
2019-03-30T23:29:12.917Z,18.43
2019-03-30T23:31:44.714Z,17.37
2019-03-30T23:34:13.707Z,17.03
2019-03-30T23:36:42.721Z,18.27
2019-03-30T23:39:11.706Z,17.67
2019-03-30T23:41:43.275Z,17.63
2019-03-30T23:44:12.359Z,17.03
2019-03-30T23:46:41.360Z,15.70
2019-03-30T23:49:10.351Z,13.13
2019-03-30T23:51:39.390Z,15.67
2019-03-30T23:54:13.595Z,16.23
2019-03-30T23:56:45.683Z,13.60
2019-03-30T23:59:14.812Z,14.37
